createdAt,value
2023-01-22T00:02:12.246Z,5.53
2023-01-22T00:04:41.834Z,6.20
2023-01-22T00:07:15.613Z,6.20
2023-01-22T00:09:45.380Z,6.37
2023-01-22T00:12:14.935Z,5.77
2023-01-22T00:14:45.085Z,7.13
2023-01-22T00:17:14.674Z,6.43
2023-01-22T00:19:44.169Z,6.30
2023-01-22T00:22:16.383Z,6.73
2023-01-22T00:24:46.035Z,5.80
2023-01-22T00:27:15.535Z,6.53
2023-01-22T00:29:45.015Z,5.40
2023-01-22T00:32:14.658Z,6.03
2023-01-22T00:34:50.763Z,6.80
2023-01-22T00:37:23.862Z,6.47
2023-01-22T00:39:53.392Z,5.83
2023-01-22T00:42:23.746Z,5.50
2023-01-22T00:44:53.316Z,5.63
2023-01-22T00:47:22.785Z,5.77
2023-01-22T00:49:52.346Z,5.33
2023-01-22T00:52:24.462Z,5.63
2023-01-22T00:54:53.942Z,5.83
2023-01-22T00:57:23.383Z,5.67
2023-01-22T00:59:53.342Z,6.60
2023-01-22T01:02:22.976Z,5.10
2023-01-22T01:04:52.514Z,5.77
2023-01-22T01:07:24.613Z,6.23
2023-01-22T01:09:54.168Z,5.93
2023-01-22T01:12:23.646Z,4.93
2023-01-22T01:14:55.982Z,5.40
2023-01-22T01:17:26.231Z,4.97
2023-01-22T01:19:55.759Z,5.23
2023-01-22T01:22:27.805Z,5.37
2023-01-22T01:24:58.038Z,5.37
2023-01-22T01:27:29.306Z,5.60
2023-01-22T01:29:59.789Z,5.50
2023-01-22T01:32:29.317Z,6.13
2023-01-22T01:34:58.865Z,6.37
2023-01-22T01:37:30.978Z,5.73
2023-01-22T01:40:00.670Z,6.00
2023-01-22T01:42:34.670Z,5.40
2023-01-22T01:45:19.216Z,5.10
2023-01-22T01:47:49.216Z,5.63
2023-01-22T01:50:19.668Z,4.87
2023-01-22T01:52:52.169Z,5.63
2023-01-22T01:55:24.448Z,5.13
2023-01-22T01:57:54.411Z,5.53
2023-01-22T02:00:23.896Z,4.77
2023-01-22T02:02:53.605Z,4.87
2023-01-22T02:05:23.561Z,4.80
2023-01-22T02:07:55.703Z,5.10
2023-01-22T02:10:25.248Z,5.67
2023-01-22T02:12:55.880Z,4.73
2023-01-22T02:15:26.612Z,5.67
2023-01-22T02:17:56.153Z,5.37
2023-01-22T02:20:25.575Z,4.57
2023-01-22T02:22:57.684Z,5.40
2023-01-22T02:25:27.502Z,5.50
2023-01-22T02:27:56.928Z,4.73
2023-01-22T02:30:26.542Z,5.50
2023-01-22T02:32:58.687Z,4.87
2023-01-22T02:35:28.328Z,4.73
2023-01-22T02:38:00.487Z,4.93
2023-01-22T02:40:31.118Z,4.57
2023-01-22T02:43:01.255Z,4.63
2023-01-22T02:45:30.817Z,4.60
2023-01-22T02:48:00.522Z,4.93
2023-01-22T02:50:30.692Z,4.70
2023-01-22T02:53:03.172Z,5.13
2023-01-22T02:55:32.702Z,4.63
2023-01-22T02:58:02.194Z,4.70
2023-01-22T03:00:31.824Z,4.97
2023-01-22T03:03:01.284Z,4.40
2023-01-22T03:05:31.245Z,4.77
2023-01-22T03:08:03.364Z,4.43
2023-01-22T03:10:33.175Z,4.10
2023-01-22T03:13:15.743Z,4.73
2023-01-22T03:15:58.513Z,4.17
2023-01-22T03:18:40.605Z,4.00
2023-01-22T03:21:17.321Z,4.20
2023-01-22T03:23:51.189Z,4.93
2023-01-22T03:26:21.574Z,4.40
2023-01-22T03:28:51.182Z,4.40
2023-01-22T03:31:20.672Z,4.23
2023-01-22T03:33:50.250Z,4.10
2023-01-22T03:36:19.744Z,3.77
2023-01-22T03:38:56.525Z,4.83
2023-01-22T03:41:27.372Z,3.97
2023-01-22T03:43:59.069Z,3.70
2023-01-22T03:46:34.861Z,3.83
2023-01-22T03:49:05.533Z,4.57
2023-01-22T03:51:35.209Z,4.57
2023-01-22T03:54:08.334Z,4.07
2023-01-22T03:56:38.225Z,4.37
2023-01-22T03:59:14.541Z,4.13
2023-01-22T04:01:44.404Z,3.93
2023-01-22T04:04:14.016Z,4.10
2023-01-22T04:06:45.528Z,4.37
2023-01-22T04:09:18.487Z,3.83
2023-01-22T04:11:51.641Z,4.30
2023-01-22T04:14:21.609Z,3.97
2023-01-22T04:17:02.817Z,4.20
2023-01-22T04:19:42.856Z,4.43
2023-01-22T04:22:39.589Z,3.83
2023-01-22T04:25:14.232Z,4.03
2023-01-22T04:27:46.931Z,3.90
2023-01-22T04:30:20.801Z,4.00
2023-01-22T04:32:55.646Z,3.60
2023-01-22T04:35:31.484Z,4.10
2023-01-22T04:38:02.156Z,4.20
2023-01-22T04:40:34.627Z,3.83
2023-01-22T04:43:04.229Z,4.33
2023-01-22T04:45:35.629Z,3.40
2023-01-22T04:48:05.447Z,4.13
2023-01-22T04:50:36.462Z,3.93
2023-01-22T04:53:06.356Z,4.20
2023-01-22T04:55:38.812Z,3.40
2023-01-22T04:58:11.336Z,4.00
2023-01-22T05:00:41.799Z,3.90
2023-01-22T05:03:13.061Z,3.63
2023-01-22T05:05:44.497Z,4.43
2023-01-22T05:08:14.878Z,4.00
2023-01-22T05:10:47.070Z,3.77
2023-01-22T05:13:23.217Z,4.00
2023-01-22T05:15:52.734Z,4.00
2023-01-22T05:18:22.293Z,3.47
2023-01-22T05:20:54.105Z,4.20
2023-01-22T05:23:26.041Z,3.67
2023-01-22T05:25:58.304Z,4.13
2023-01-22T05:28:49.394Z,4.17
2023-01-22T05:31:39.237Z,3.60
2023-01-22T05:34:13.363Z,4.30
2023-01-22T05:36:42.908Z,3.60
2023-01-22T05:39:19.368Z,4.10
2023-01-22T05:41:51.663Z,3.70
2023-01-22T05:44:21.146Z,3.73
2023-01-22T05:46:54.674Z,4.27
2023-01-22T05:49:48.616Z,3.70
2023-01-22T05:52:19.271Z,3.77
2023-01-22T05:54:48.863Z,3.97
2023-01-22T05:57:21.108Z,4.20
2023-01-22T05:59:51.670Z,4.23
2023-01-22T06:02:21.151Z,4.70
2023-01-22T06:04:51.164Z,4.33
2023-01-22T06:07:25.484Z,3.57
2023-01-22T06:09:55.400Z,3.53
2023-01-22T06:12:27.543Z,4.27
2023-01-22T06:14:57.735Z,3.87
2023-01-22T06:17:27.273Z,3.37
2023-01-22T06:19:58.449Z,4.00
2023-01-22T06:22:29.063Z,4.03
2023-01-22T06:25:02.420Z,4.53
2023-01-22T06:27:51.687Z,4.20
2023-01-22T06:30:21.264Z,4.23
2023-01-22T06:32:54.673Z,4.17
2023-01-22T06:35:24.206Z,3.83
2023-01-22T06:37:54.623Z,3.67
2023-01-22T06:40:25.615Z,4.00
2023-01-22T06:42:57.959Z,4.10
2023-01-22T06:45:27.464Z,3.77
2023-01-22T06:48:03.041Z,4.30
2023-01-22T06:50:32.555Z,4.23
2023-01-22T06:53:02.907Z,4.20
2023-01-22T06:55:32.553Z,3.83
2023-01-22T06:58:04.960Z,4.03
2023-01-22T07:00:34.957Z,3.40
2023-01-22T07:03:07.728Z,3.67
2023-01-22T07:05:37.365Z,3.60
2023-01-22T07:08:07.037Z,3.93
2023-01-22T07:10:36.789Z,4.03
2023-01-22T07:13:10.374Z,3.53
2023-01-22T07:15:39.949Z,3.60
2023-01-22T07:18:09.428Z,4.17
2023-01-22T07:20:39.286Z,3.67
2023-01-22T07:23:08.805Z,4.00
2023-01-22T07:25:38.346Z,4.00
2023-01-22T07:28:10.559Z,4.23
2023-01-22T07:30:40.636Z,4.23
2023-01-22T07:33:10.117Z,4.57
2023-01-22T07:35:39.725Z,3.67
2023-01-22T07:38:09.532Z,3.93
2023-01-22T07:40:39.097Z,3.30
2023-01-22T07:43:15.118Z,4.40
2023-01-22T07:45:44.648Z,3.97
2023-01-22T07:48:14.351Z,4.00
2023-01-22T07:50:43.876Z,3.70
2023-01-22T07:53:13.940Z,3.90
2023-01-22T07:55:43.810Z,4.53
2023-01-22T07:58:15.908Z,4.63
2023-01-22T08:00:45.728Z,4.23
2023-01-22T08:03:15.377Z,5.00
2023-01-22T08:05:45.336Z,4.00
2023-01-22T08:08:16.335Z,4.50
2023-01-22T08:10:46.858Z,4.47
2023-01-22T08:13:18.904Z,4.23
2023-01-22T08:15:48.487Z,4.03
2023-01-22T08:18:19.647Z,4.50
2023-01-22T08:20:50.404Z,4.30
2023-01-22T08:23:21.850Z,4.30
2023-01-22T08:25:51.640Z,4.90
2023-01-22T08:28:23.799Z,3.80
2023-01-22T08:30:53.481Z,3.50
2023-01-22T08:33:25.830Z,4.13
2023-01-22T08:35:55.874Z,4.13
2023-01-22T08:38:25.493Z,4.30
2023-01-22T08:40:55.468Z,4.63
2023-01-22T08:43:27.779Z,4.07
2023-01-22T08:45:57.372Z,3.83
2023-01-22T08:48:26.902Z,3.43
2023-01-22T08:50:56.469Z,3.63
2023-01-22T08:53:25.984Z,3.90
2023-01-22T08:55:55.514Z,3.37
2023-01-22T08:58:28.116Z,3.63
2023-01-22T09:00:58.347Z,4.33
2023-01-22T09:03:27.945Z,4.00
2023-01-22T09:05:57.555Z,3.40
2023-01-22T09:08:27.082Z,4.40
2023-01-22T09:10:56.686Z,3.93
2023-01-22T09:13:28.921Z,3.77
2023-01-22T09:15:58.747Z,4.40
2023-01-22T09:18:28.599Z,4.30
2023-01-22T09:20:58.260Z,4.47
2023-01-22T09:23:27.860Z,4.33
2023-01-22T09:25:57.329Z,4.63
2023-01-22T09:28:29.448Z,4.43
2023-01-22T09:30:59.058Z,5.03
2023-01-22T09:33:28.569Z,5.03
2023-01-22T09:35:58.058Z,4.60
2023-01-22T09:38:27.512Z,5.60
2023-01-22T09:40:58.842Z,5.17
2023-01-22T09:43:32.773Z,5.63
2023-01-22T09:46:04.857Z,5.17
2023-01-22T09:48:37.774Z,6.40
2023-01-22T09:51:07.719Z,5.87
2023-01-22T09:53:37.804Z,5.30
2023-01-22T09:56:08.609Z,5.20
2023-01-22T09:58:40.818Z,4.93
2023-01-22T10:01:10.418Z,4.40
2023-01-22T10:03:41.983Z,3.40
2023-01-22T10:06:13.152Z,3.10
2023-01-22T10:08:46.280Z,3.47
2023-01-22T10:11:15.842Z,2.83
2023-01-22T10:13:47.947Z,2.87
2023-01-22T10:16:17.575Z,2.93
2023-01-22T10:18:48.965Z,2.80
2023-01-22T10:21:21.539Z,2.47
2023-01-22T10:23:51.710Z,2.70
2023-01-22T10:26:25.114Z,3.40
2023-01-22T10:28:58.098Z,3.63
2023-01-22T10:31:29.256Z,4.37
2023-01-22T10:34:00.385Z,4.37
2023-01-22T10:36:30.177Z,3.53
2023-01-22T10:39:17.585Z,3.33
2023-01-22T10:41:48.501Z,2.50
2023-01-22T10:44:24.631Z,2.87
2023-01-22T10:46:54.946Z,2.77
2023-01-22T10:49:25.398Z,2.30
2023-01-22T10:51:56.273Z,2.87
2023-01-22T10:54:27.893Z,2.97
2023-01-22T10:57:06.816Z,3.00
2023-01-22T10:59:39.550Z,2.77
2023-01-22T11:02:14.786Z,3.00
2023-01-22T11:04:44.357Z,3.00
2023-01-22T11:07:17.418Z,2.97
2023-01-22T11:09:48.774Z,2.83
2023-01-22T11:12:19.432Z,3.10
2023-01-22T11:15:03.532Z,3.07
2023-01-22T11:17:37.486Z,2.60
2023-01-22T11:20:08.599Z,2.70
2023-01-22T11:22:40.097Z,2.87
2023-01-22T11:25:11.998Z,2.87
2023-01-22T11:27:56.351Z,3.10
2023-01-22T11:30:37.347Z,3.00
2023-01-22T11:33:11.623Z,2.80
2023-01-22T11:35:44.361Z,2.63
2023-01-22T11:38:18.907Z,3.43
2023-01-22T11:41:01.999Z,4.40
2023-01-22T11:43:39.872Z,3.50
2023-01-22T11:46:20.804Z,3.20
2023-01-22T11:48:55.669Z,4.03
2023-01-22T11:51:29.897Z,4.50
2023-01-22T11:54:03.786Z,4.77
2023-01-22T11:56:39.408Z,4.73
2023-01-22T11:59:14.284Z,3.90
2023-01-22T12:01:55.666Z,4.70
2023-01-22T12:04:44.535Z,3.70
2023-01-22T12:07:36.270Z,4.40
2023-01-22T12:10:13.789Z,4.67
2023-01-22T12:12:46.961Z,4.37
2023-01-22T12:15:32.089Z,3.77
2023-01-22T12:18:11.106Z,5.30
2023-01-22T12:20:58.490Z,3.80
2023-01-22T12:23:29.365Z,4.57
2023-01-22T12:26:01.760Z,4.67
2023-01-22T12:28:34.693Z,4.30
2023-01-22T12:31:09.220Z,4.00
2023-01-22T12:33:42.853Z,4.07
2023-01-22T12:36:13.572Z,4.20
2023-01-22T12:38:45.192Z,3.80
2023-01-22T12:41:32.595Z,3.37
2023-01-22T12:44:03.293Z,3.60
2023-01-22T12:46:36.248Z,6.47
2023-01-22T12:49:10.251Z,6.53
2023-01-22T12:51:42.263Z,5.43
2023-01-22T12:54:12.502Z,4.90
2023-01-22T12:56:42.107Z,4.80
2023-01-22T12:59:30.800Z,4.03
2023-01-22T13:02:04.200Z,3.97
2023-01-22T13:04:36.490Z,2.87
2023-01-22T13:07:07.562Z,3.43
2023-01-22T13:09:39.181Z,3.73
2023-01-22T13:12:12.291Z,3.57
2023-01-22T13:14:43.330Z,3.20
2023-01-22T13:17:20.758Z,3.63
2023-01-22T13:19:53.302Z,3.23
2023-01-22T13:22:24.519Z,3.53
2023-01-22T13:24:55.035Z,3.73
2023-01-22T13:27:26.545Z,4.53
2023-01-22T13:30:08.278Z,3.73
2023-01-22T13:32:38.160Z,3.30
2023-01-22T13:35:10.815Z,3.10
2023-01-22T13:37:41.932Z,3.30
2023-01-22T13:40:16.080Z,3.23
2023-01-22T13:42:47.983Z,3.90
2023-01-22T13:45:18.292Z,3.60
2023-01-22T13:47:48.157Z,3.07
2023-01-22T13:50:25.050Z,3.23
2023-01-22T13:52:54.671Z,2.87
2023-01-22T13:55:24.665Z,3.03
2023-01-22T13:57:55.283Z,3.10
2023-01-22T14:00:29.782Z,3.20
2023-01-22T14:02:59.976Z,3.27
2023-01-22T14:05:32.796Z,3.07
2023-01-22T14:08:09.104Z,2.80
2023-01-22T14:10:38.880Z,3.00
2023-01-22T14:13:09.764Z,3.10
2023-01-22T14:15:39.841Z,2.93
2023-01-22T14:18:10.997Z,3.13
2023-01-22T14:20:44.602Z,2.93
2023-01-22T14:23:14.295Z,2.93
2023-01-22T14:25:44.682Z,2.77
2023-01-22T14:28:14.220Z,2.90
2023-01-22T14:30:43.896Z,2.83
2023-01-22T14:33:14.517Z,3.33
2023-01-22T14:35:46.634Z,3.07
2023-01-22T14:38:16.366Z,3.00
2023-01-22T14:40:45.826Z,3.70
2023-01-22T14:43:15.297Z,3.50
2023-01-22T14:45:46.338Z,21.30
2023-01-22T14:48:16.246Z,29.83
2023-01-22T14:50:48.766Z,10.00
2023-01-22T14:53:19.349Z,3.17
2023-01-22T14:55:49.322Z,3.80
2023-01-22T14:58:18.844Z,3.27
2023-01-22T15:00:48.308Z,3.83
2023-01-22T15:03:17.935Z,3.13
2023-01-22T15:05:53.178Z,3.63
2023-01-22T15:08:22.788Z,3.20
2023-01-22T15:10:52.236Z,3.63
2023-01-22T15:13:21.750Z,3.10
2023-01-22T15:15:51.325Z,3.47
2023-01-22T15:18:20.886Z,3.30
2023-01-22T15:20:53.286Z,3.67
2023-01-22T15:23:22.804Z,3.67
2023-01-22T15:25:58.640Z,3.70
2023-01-22T15:28:28.303Z,3.60
2023-01-22T15:30:59.219Z,3.47
2023-01-22T15:33:28.750Z,3.37
2023-01-22T15:36:00.845Z,3.00
2023-01-22T15:38:30.343Z,3.70
2023-01-22T15:41:07.118Z,3.37
2023-01-22T15:43:36.737Z,3.30
2023-01-22T15:46:06.399Z,3.63
2023-01-22T15:48:38.031Z,3.43
2023-01-22T15:51:14.693Z,4.00
2023-01-22T15:53:44.430Z,4.20
2023-01-22T15:56:13.935Z,4.10
2023-01-22T15:58:43.402Z,3.50
2023-01-22T16:01:12.968Z,3.40
2023-01-22T16:03:42.479Z,4.07
2023-01-22T16:06:15.977Z,4.37
2023-01-22T16:08:46.309Z,4.40
2023-01-22T16:11:16.728Z,4.10
2023-01-22T16:13:46.358Z,4.30
2023-01-22T16:16:19.665Z,4.80
2023-01-22T16:18:49.878Z,7.07
2023-01-22T16:21:22.807Z,5.90
2023-01-22T16:23:55.134Z,5.97
2023-01-22T16:26:26.400Z,6.03
2023-01-22T16:28:57.135Z,6.13
2023-01-22T16:31:28.327Z,5.30
2023-01-22T16:33:58.611Z,4.00
2023-01-22T16:36:33.543Z,4.90
2023-01-22T16:39:03.077Z,5.13
2023-01-22T16:41:33.214Z,5.30
2023-01-22T16:44:03.424Z,5.50
2023-01-22T16:46:33.971Z,4.33
2023-01-22T16:49:04.851Z,4.47
2023-01-22T16:51:40.958Z,5.20
2023-01-22T16:54:10.957Z,5.43
2023-01-22T16:56:40.469Z,4.80
2023-01-22T16:59:10.735Z,6.23
2023-01-22T17:01:41.494Z,4.97
2023-01-22T17:04:11.194Z,5.67
2023-01-22T17:06:44.657Z,4.83
2023-01-22T17:09:17.041Z,4.90
2023-01-22T17:11:47.291Z,5.03
2023-01-22T17:14:18.097Z,5.20
2023-01-22T17:16:47.738Z,4.73
2023-01-22T17:19:18.703Z,5.27
2023-01-22T17:21:53.187Z,5.13
2023-01-22T17:24:22.759Z,5.37
2023-01-22T17:26:52.487Z,5.07
2023-01-22T17:29:22.115Z,5.53
2023-01-22T17:31:52.725Z,6.30
2023-01-22T17:34:23.438Z,5.10
2023-01-22T17:36:56.351Z,5.10
2023-01-22T17:39:26.224Z,5.17
2023-01-22T17:41:55.808Z,5.77
2023-01-22T17:44:25.332Z,5.23
2023-01-22T17:46:55.526Z,5.20
2023-01-22T17:49:25.079Z,5.60
2023-01-22T17:51:57.201Z,5.73
2023-01-22T17:54:26.820Z,5.03
2023-01-22T17:56:56.546Z,4.40
2023-01-22T17:59:26.743Z,4.10
2023-01-22T18:01:56.468Z,4.40
2023-01-22T18:04:26.150Z,4.33
2023-01-22T18:06:58.310Z,5.93
2023-01-22T18:09:27.845Z,6.43
2023-01-22T18:11:58.568Z,5.33
2023-01-22T18:14:31.388Z,4.87
2023-01-22T18:17:01.246Z,8.90
2023-01-22T18:19:31.072Z,6.20
2023-01-22T18:22:03.260Z,4.90
2023-01-22T18:24:34.337Z,5.70
2023-01-22T18:27:03.853Z,5.00
2023-01-22T18:29:33.361Z,6.27
2023-01-22T18:32:03.087Z,5.40
2023-01-22T18:34:32.683Z,6.37
2023-01-22T18:37:04.826Z,6.00
2023-01-22T18:39:34.573Z,6.13
2023-01-22T18:42:04.039Z,6.03
2023-01-22T18:44:33.549Z,6.33
2023-01-22T18:47:03.654Z,7.20
2023-01-22T18:49:33.108Z,7.40
2023-01-22T18:52:05.337Z,6.90
2023-01-22T18:54:34.901Z,6.13
2023-01-22T18:57:04.376Z,6.00
2023-01-22T18:59:33.921Z,5.67
2023-01-22T19:02:03.435Z,6.23
2023-01-22T19:04:33.861Z,5.90
2023-01-22T19:07:06.166Z,6.17
2023-01-22T19:09:35.813Z,6.20
2023-01-22T19:12:07.424Z,5.70
2023-01-22T19:14:37.123Z,6.10
2023-01-22T19:17:07.011Z,5.83
2023-01-22T19:19:36.527Z,5.97
2023-01-22T19:22:08.662Z,6.33
2023-01-22T19:24:38.533Z,5.93
2023-01-22T19:27:08.266Z,6.23
2023-01-22T19:29:37.795Z,6.50
2023-01-22T19:32:11.314Z,5.97
2023-01-22T19:34:41.068Z,5.90
2023-01-22T19:37:13.486Z,6.53
2023-01-22T19:39:43.000Z,5.90
2023-01-22T19:42:12.499Z,5.77
2023-01-22T19:44:43.075Z,5.83
2023-01-22T19:47:13.926Z,5.40
2023-01-22T19:49:43.926Z,5.83
2023-01-22T19:52:16.472Z,5.27
2023-01-22T19:54:48.514Z,5.90
2023-01-22T19:57:18.155Z,5.73
2023-01-22T19:59:48.167Z,5.43
2023-01-22T20:02:20.919Z,5.10
2023-01-22T20:04:50.554Z,5.97
2023-01-22T20:07:22.765Z,5.17
2023-01-22T20:09:54.984Z,5.40
2023-01-22T20:12:24.724Z,6.00
2023-01-22T20:14:54.277Z,5.53
2023-01-22T20:17:23.902Z,5.50
2023-01-22T20:19:53.489Z,6.13
2023-01-22T20:22:25.783Z,5.53
2023-01-22T20:24:55.452Z,6.17
2023-01-22T20:27:25.067Z,5.93
2023-01-22T20:29:54.625Z,6.13
2023-01-22T20:32:25.416Z,5.47
2023-01-22T20:34:54.933Z,5.57
2023-01-22T20:37:27.447Z,5.83
2023-01-22T20:39:57.375Z,6.03
2023-01-22T20:42:27.060Z,6.03
2023-01-22T20:44:58.374Z,6.07
2023-01-22T20:47:28.014Z,6.27
2023-01-22T20:49:57.530Z,6.07
2023-01-22T20:52:29.706Z,5.53
2023-01-22T20:55:02.523Z,6.27
2023-01-22T20:57:32.524Z,6.50
2023-01-22T21:00:02.125Z,7.37
2023-01-22T21:02:31.762Z,6.50
2023-01-22T21:05:01.421Z,6.63
2023-01-22T21:07:33.564Z,6.50
2023-01-22T21:10:03.221Z,6.97
2023-01-22T21:12:32.998Z,6.97
2023-01-22T21:15:03.179Z,6.57
2023-01-22T21:17:33.807Z,5.83
2023-01-22T21:20:03.352Z,6.30
2023-01-22T21:22:36.048Z,5.33
2023-01-22T21:25:05.958Z,5.63
2023-01-22T21:27:35.474Z,4.60
2023-01-22T21:30:05.065Z,5.50
2023-01-22T21:32:34.821Z,5.73
2023-01-22T21:35:04.381Z,4.90
2023-01-22T21:37:36.805Z,5.80
2023-01-22T21:40:08.652Z,5.57
2023-01-22T21:42:50.623Z,4.73
2023-01-22T21:45:32.598Z,4.80
2023-01-22T21:48:02.207Z,4.83
2023-01-22T21:50:31.705Z,4.63
2023-01-22T21:53:03.815Z,5.10
2023-01-22T21:55:33.383Z,5.37
2023-01-22T21:58:02.950Z,4.97
2023-01-22T22:00:32.641Z,5.27
2023-01-22T22:03:02.128Z,5.53
2023-01-22T22:05:31.676Z,4.53
2023-01-22T22:08:04.269Z,4.70
2023-01-22T22:10:33.851Z,5.43
2023-01-22T22:13:03.327Z,4.67
2023-01-22T22:15:33.016Z,5.30
2023-01-22T22:18:02.487Z,3.80
2023-01-22T22:20:33.729Z,4.97
2023-01-22T22:23:05.945Z,4.70
2023-01-22T22:25:35.919Z,5.00
2023-01-22T22:28:05.449Z,5.17
2023-01-22T22:30:36.996Z,5.27
2023-01-22T22:33:06.832Z,5.23
2023-01-22T22:35:36.381Z,4.23
2023-01-22T22:38:08.554Z,5.43
2023-01-22T22:40:38.430Z,5.27
2023-01-22T22:43:07.957Z,5.37
2023-01-22T22:45:38.774Z,5.07
2023-01-22T22:48:08.483Z,4.60
2023-01-22T22:50:40.385Z,5.20
2023-01-22T22:53:12.481Z,4.80
2023-01-22T22:55:42.764Z,5.20
2023-01-22T22:58:13.437Z,5.43
2023-01-22T23:00:43.048Z,4.90
2023-01-22T23:03:12.616Z,4.57
2023-01-22T23:05:42.139Z,5.23
2023-01-22T23:08:14.293Z,4.63
2023-01-22T23:10:43.831Z,4.83
2023-01-22T23:13:13.320Z,4.73
2023-01-22T23:15:42.875Z,4.93
2023-01-22T23:18:12.394Z,4.87
2023-01-22T23:20:41.932Z,4.73
2023-01-22T23:23:14.075Z,5.17
2023-01-22T23:25:45.322Z,5.07
2023-01-22T23:28:15.055Z,4.60
2023-01-22T23:30:44.649Z,4.53
2023-01-22T23:33:14.172Z,4.63
2023-01-22T23:35:43.749Z,4.87
2023-01-22T23:38:15.945Z,4.20
2023-01-22T23:40:45.617Z,4.70
2023-01-22T23:43:15.189Z,4.63
2023-01-22T23:45:44.788Z,4.50
2023-01-22T23:48:14.313Z,4.80
2023-01-22T23:50:46.220Z,4.50
2023-01-22T23:53:18.999Z,4.47
2023-01-22T23:55:48.556Z,4.70
2023-01-22T23:58:18.048Z,5.60
